Time;durP1;ratioP1;P1;durP2;ratioP2;P2;SDS_P1;SDS_P2;PMS_P1;PMS_P2;Temp;Humidity;BMP_temperature;BMP_pressure;BME280_temperature;BME280_humidity;BME280_pressure;Samples;Min_cycle;Max_cycle;Signal;HPM_P1;HPM_P2
2021/05/01 00:02:09;;;;;;;36.65;28.98;;;6.10;99.90;;;;;;5057335;28;20449;-78
2021/05/01 00:04:36;;;;;;;36.88;26.92;;;5.90;99.90;;;;;;5063740;28;20381;-78
2021/05/01 00:07:03;;;;;;;36.13;26.92;;;5.90;99.90;;;;;;5051890;28;20040;-77
2021/05/01 00:09:29;;;;;;;34.22;26.08;;;5.70;99.90;;;;;;5059735;28;20377;-77
2021/05/01 00:11:56;;;;;;;40.72;28.45;;;5.70;99.90;;;;;;5056627;28;20361;-78
2021/05/01 00:14:25;;;;;;;39.33;28.38;;;5.60;99.90;;;;;;5058141;28;20049;-78
2021/05/01 00:16:53;;;;;;;40.10;29.73;;;5.60;99.90;;;;;;5056678;28;20465;-78
2021/05/01 00:19:19;;;;;;;45.30;31.08;;;5.70;99.90;;;;;;5055651;28;20029;-77
2021/05/01 00:21:46;;;;;;;42.13;31.38;;;5.70;99.90;;;;;;5064862;28;20469;-77
2021/05/01 00:24:12;;;;;;;43.58;30.48;;;5.60;99.90;;;;;;5052478;28;20363;-77
2021/05/01 00:26:39;;;;;;;45.58;31.42;;;5.70;99.90;;;;;;5052117;28;20044;-77
2021/05/01 00:29:05;;;;;;;41.60;30.65;;;5.80;99.90;;;;;;5066385;28;20037;-77
2021/05/01 00:31:32;;;;;;;41.53;30.73;;;5.80;99.90;;;;;;5052068;28;20031;-77
2021/05/01 00:33:58;;;;;;;42.58;30.77;;;5.80;99.90;;;;;;5052050;28;20454;-77
2021/05/01 00:36:25;;;;;;;43.80;30.98;;;5.80;99.90;;;;;;5052217;28;20366;-77
2021/05/01 00:38:51;;;;;;;41.80;29.88;;;5.70;99.90;;;;;;5066682;28;20037;-78
2021/05/01 00:41:17;;;;;;;39.72;30.42;;;5.70;99.90;;;;;;5052596;28;20043;-78
2021/05/01 00:43:43;;;;;;;44.33;32.90;;;5.60;99.90;;;;;;5060059;28;20032;-78
2021/05/01 00:46:09;;;;;;;43.65;31.55;;;5.60;99.90;;;;;;5051831;28;20355;-78
2021/05/01 00:48:36;;;;;;;49.58;33.30;;;5.50;99.90;;;;;;5051921;28;20036;-78
2021/05/01 00:51:04;;;;;;;45.80;33.33;;;5.40;99.90;;;;;;5051621;28;20029;-78
2021/05/01 00:53:32;;;;;;;45.78;35.00;;;5.40;99.90;;;;;;5052009;28;20032;-78
2021/05/01 00:56:00;;;;;;;47.80;34.85;;;5.40;99.90;;;;;;5063612;28;20043;-78
2021/05/01 00:58:26;;;;;;;45.78;33.28;;;5.30;99.90;;;;;;5056769;28;20350;-78
2021/05/01 01:03:35;;;;;;;52.10;33.53;;;5.00;99.90;;;;;;5065693;28;20033;-76
2021/05/01 01:06:02;;;;;;;45.95;33.65;;;5.00;99.90;;;;;;5055346;28;20466;-77
2021/05/01 01:08:28;;;;;;;49.55;34.53;;;4.90;99.90;;;;;;5055634;28;20025;-77
2021/05/01 01:10:55;;;;;;;50.70;34.50;;;4.90;99.90;;;;;;5055322;28;20477;-78
2021/05/01 01:13:21;;;;;;;52.05;34.15;;;4.90;99.90;;;;;;5055761;28;20021;-78
2021/05/01 01:15:48;;;;;;;55.78;36.40;;;4.90;99.90;;;;;;5055113;28;20029;-78
2021/05/01 01:18:15;;;;;;;57.45;37.42;;;4.90;99.90;;;;;;5069250;28;20060;-77
2021/05/01 01:20:42;;;;;;;55.72;37.78;;;4.90;99.90;;;;;;5055822;28;20059;-78
2021/05/01 01:23:08;;;;;;;56.30;36.55;;;4.90;99.90;;;;;;5054968;28;20059;-78
2021/05/01 01:25:35;;;;;;;57.30;37.97;;;4.90;99.90;;;;;;5055364;28;20033;-78
2021/05/01 01:28:02;;;;;;;61.35;40.10;;;4.80;99.90;;;;;;5055260;28;20037;-78
2021/05/01 01:30:30;;;;;;;55.88;37.95;;;4.90;99.90;;;;;;5055102;28;20036;-78
2021/05/01 01:33:00;;;;;;;59.72;38.72;;;4.80;99.90;;;;;;5054743;28;20037;-78
2021/05/01 01:35:28;;;;;;;56.10;36.85;;;4.80;99.90;;;;;;5055484;28;20036;-77
2021/05/01 01:37:55;;;;;;;57.80;36.63;;;4.70;99.90;;;;;;5055228;28;20119;-78
2021/05/01 01:40:22;;;;;;;57.55;37.83;;;4.70;99.90;;;;;;5068905;28;20028;-77
2021/05/01 01:42:49;;;;;;;56.13;37.28;;;4.80;99.90;;;;;;5060383;28;20096;-77
2021/05/01 01:45:18;;;;;;;53.03;35.60;;;4.80;99.90;;;;;;5055726;28;20036;-78
2021/05/01 01:47:44;;;;;;;51.08;34.85;;;4.80;99.90;;;;;;5055038;28;20048;-77
2021/05/01 01:50:14;;;;;;;49.83;33.30;;;4.80;99.90;;;;;;5062705;28;20021;-77
2021/05/01 01:52:40;;;;;;;44.85;31.30;;;4.70;99.90;;;;;;5054910;28;20021;-78
2021/05/01 01:55:09;;;;;;;53.50;35.65;;;4.60;99.90;;;;;;5067043;28;20505;-78
2021/05/01 01:57:36;;;;;;;47.05;32.38;;;4.50;99.90;;;;;;5058464;28;20044;-78
2021/05/01 02:00:06;;;;;;;47.65;33.28;;;4.50;99.90;;;;;;5068746;28;20343;-78
2021/05/01 02:02:39;;;;;;;50.13;33.17;;;4.50;99.90;;;;;;5061338;28;20335;-78
2021/05/01 02:05:07;;;;;;;44.17;32.20;;;4.60;99.90;;;;;;5057641;28;20033;-78
2021/05/01 02:07:33;;;;;;;46.35;33.13;;;4.60;99.90;;;;;;5067145;28;20037;-78
2021/05/01 02:10:00;;;;;;;48.42;33.78;;;4.60;99.90;;;;;;5053991;28;20052;-78
2021/05/01 02:12:26;;;;;;;51.55;33.85;;;4.60;99.90;;;;;;5054828;28;20028;-77
2021/05/01 02:14:52;;;;;;;46.10;33.08;;;4.50;99.90;;;;;;5054127;28;20332;-77
2021/05/01 02:17:19;;;;;;;48.80;32.75;;;4.40;99.90;;;;;;5054500;28;20029;-77
2021/05/01 02:19:45;;;;;;;48.13;33.38;;;4.30;99.90;;;;;;5053873;28;20052;-77
2021/05/01 02:22:12;;;;;;;50.85;32.80;;;4.20;99.90;;;;;;5054294;28;20339;-77
2021/05/01 02:24:38;;;;;;;49.63;33.95;;;4.30;99.90;;;;;;5054724;28;20051;-77
2021/05/01 02:27:04;;;;;;;52.38;33.40;;;4.20;99.90;;;;;;5068701;28;20056;-77
2021/05/01 02:29:30;;;;;;;48.90;33.95;;;4.20;99.90;;;;;;5053970;28;20028;-77
2021/05/01 02:31:57;;;;;;;50.38;35.53;;;4.10;99.90;;;;;;5053976;28;20466;-77
2021/05/01 02:34:23;;;;;;;55.90;35.42;;;4.10;99.90;;;;;;5073179;28;20048;-77
2021/05/01 02:36:49;;;;;;;61.42;36.65;;;4.10;99.90;;;;;;5053065;28;20045;-77
2021/05/01 02:39:15;;;;;;;60.03;37.28;;;4.10;99.90;;;;;;5054355;28;20040;-78
2021/05/01 02:41:42;;;;;;;59.80;38.55;;;4.00;99.90;;;;;;5052482;28;20398;-78
2021/05/01 02:44:08;;;;;;;65.40;39.00;;;4.00;99.90;;;;;;5061480;28;20035;-78
2021/05/01 02:46:34;;;;;;;61.53;39.80;;;4.10;99.90;;;;;;5058512;28;20036;-78
2021/05/01 02:49:00;;;;;;;65.07;42.45;;;4.10;99.90;;;;;;5053568;28;20051;-78
2021/05/01 02:51:26;;;;;;;65.80;40.47;;;4.10;99.90;;;;;;5053986;28;20025;-78
2021/05/01 02:53:52;;;;;;;64.20;41.72;;;4.00;99.90;;;;;;5063577;28;20441;-78
2021/05/01 02:56:19;;;;;;;60.83;38.60;;;4.10;99.90;;;;;;5067031;28;20033;-77
2021/05/01 02:58:45;;;;;;;70.70;45.25;;;4.00;99.90;;;;;;5053219;28;20386;-78
2021/05/01 03:01:11;;;;;;;65.45;43.88;;;4.10;99.90;;;;;;5053260;28;20493;-77
2021/05/01 03:03:39;;;;;;;66.28;42.58;;;4.20;99.90;;;;;;5053172;28;20052;-77
2021/05/01 03:06:05;;;;;;;65.57;41.00;;;4.20;99.90;;;;;;5053111;28;20041;-77
2021/05/01 03:08:31;;;;;;;63.55;39.67;;;4.10;99.90;;;;;;5053149;28;20025;-78
2021/05/01 03:10:57;;;;;;;65.53;42.38;;;4.20;99.90;;;;;;5071106;28;20027;-78
2021/05/01 03:13:24;;;;;;;66.85;42.33;;;4.10;99.90;;;;;;5054966;28;20040;-78
2021/05/01 03:15:50;;;;;;;61.92;41.10;;;4.00;99.90;;;;;;5053196;28;20028;-78
2021/05/01 03:18:16;;;;;;;60.03;39.45;;;4.10;99.90;;;;;;5053237;28;20051;-78
2021/05/01 03:20:43;;;;;;;66.40;41.05;;;4.00;99.90;;;;;;5061899;28;20032;-77
2021/05/01 03:23:09;;;;;;;60.03;38.60;;;4.00;99.90;;;;;;5058043;28;20477;-78
2021/05/01 03:25:35;;;;;;;57.83;37.33;;;4.00;99.90;;;;;;5071401;28;20043;-77
2021/05/01 03:28:01;;;;;;;56.42;37.92;;;3.90;99.90;;;;;;5053760;28;20037;-77
2021/05/01 03:30:28;;;;;;;57.45;36.72;;;3.90;99.90;;;;;;5053022;28;20454;-77
2021/05/01 03:32:54;;;;;;;57.40;37.05;;;3.90;99.90;;;;;;5057498;28;20138;-78
2021/05/01 03:35:20;;;;;;;54.50;36.05;;;3.90;99.90;;;;;;5063147;28;20036;-78
2021/05/01 03:37:48;;;;;;;60.53;36.60;;;3.80;99.90;;;;;;5052428;28;20548;-78
2021/05/01 03:40:14;;;;;;;61.08;39.35;;;3.80;99.90;;;;;;5052952;28;20036;-78
2021/05/01 03:42:41;;;;;;;57.33;37.92;;;3.90;99.90;;;;;;5052904;28;20036;-78
2021/05/01 03:45:08;;;;;;;60.30;38.35;;;3.90;99.90;;;;;;5053162;28;20378;-78
2021/05/01 03:47:34;;;;;;;59.45;35.88;;;3.70;99.90;;;;;;5052657;28;20051;-77
2021/05/01 03:50:01;;;;;;;59.83;37.65;;;3.60;99.90;;;;;;5052506;28;20029;-77
2021/05/01 03:52:27;;;;;;;59.10;37.00;;;3.60;99.90;;;;;;5066362;28;20044;-77
2021/05/01 03:54:53;;;;;;;60.75;38.40;;;3.50;99.90;;;;;;5052283;28;20033;-78
2021/05/01 03:57:20;;;;;;;57.40;37.40;;;3.50;99.90;;;;;;5068578;28;20032;-78
2021/05/01 03:59:46;;;;;;;56.25;37.00;;;3.50;99.90;;;;;;5051858;28;20032;-78
2021/05/01 04:02:12;;;;;;;55.28;36.45;;;3.40;99.90;;;;;;5052275;28;20363;-78
2021/05/01 04:04:38;;;;;;;54.75;35.15;;;3.30;99.90;;;;;;5052564;28;20028;-78
2021/05/01 04:07:05;;;;;;;54.20;36.35;;;3.20;99.90;;;;;;5057318;28;20037;-78
2021/05/01 04:09:31;;;;;;;60.63;38.28;;;3.30;99.90;;;;;;5066612;28;20041;-78
2021/05/01 04:11:57;;;;;;;62.42;37.83;;;3.40;99.90;;;;;;5052038;28;20021;-78
2021/05/01 04:14:24;;;;;;;66.50;39.78;;;3.40;99.90;;;;;;5052045;28;20470;-78
2021/05/01 04:16:50;;;;;;;59.45;38.78;;;3.40;99.90;;;;;;5063103;28;20048;-78
2021/05/01 04:19:17;;;;;;;69.78;41.85;;;3.30;99.90;;;;;;5052196;28;20063;-78
2021/05/01 04:21:43;;;;;;;60.00;37.45;;;3.30;99.90;;;;;;5052169;28;20041;-78
2021/05/01 04:24:09;;;;;;;66.35;41.05;;;3.30;99.90;;;;;;5051962;28;20036;-78
2021/05/01 04:26:36;;;;;;;67.63;40.70;;;3.30;99.90;;;;;;5052267;28;20036;-78
2021/05/01 04:29:02;;;;;;;69.38;40.58;;;3.30;99.90;;;;;;5051520;28;20037;-78
2021/05/01 04:31:28;;;;;;;64.50;39.42;;;3.20;99.90;;;;;;5060330;28;20040;-76
2021/05/01 04:33:55;;;;;;;67.10;41.88;;;3.00;99.90;;;;;;5058577;28;20045;-77
2021/05/01 04:36:21;;;;;;;68.85;41.17;;;2.90;99.90;;;;;;5056359;28;20032;-77
2021/05/01 04:38:47;;;;;;;71.57;42.42;;;3.00;99.90;;;;;;5063605;28;20029;-77
2021/05/01 04:41:14;;;;;;;74.72;44.60;;;3.10;99.90;;;;;;5056361;28;20017;-77
2021/05/01 04:43:42;;;;;;;68.78;40.45;;;3.20;99.90;;;;;;5056653;28;20040;-77
2021/05/01 04:46:08;;;;;;;66.88;42.53;;;3.30;99.90;;;;;;5055703;28;20029;-78
2021/05/01 04:48:34;;;;;;;61.92;39.95;;;3.50;99.90;;;;;;5056094;28;20374;-77
2021/05/01 04:51:00;;;;;;;56.95;35.90;;;4.00;99.90;;;;;;5056019;28;20048;-78
2021/05/01 04:53:27;;;;;;;51.17;33.95;;;4.20;99.90;;;;;;5074261;28;20044;-78
2021/05/01 04:55:53;;;;;;;49.28;33.53;;;4.40;99.90;;;;;;5059197;28;20052;-77
2021/05/01 04:58:19;;;;;;;47.58;33.70;;;4.40;99.90;;;;;;5068316;28;20024;-78
2021/05/01 05:00:45;;;;;;;49.83;34.22;;;4.30;99.90;;;;;;5058227;28;20025;-77
2021/05/01 05:03:11;;;;;;;46.10;32.47;;;4.50;99.90;;;;;;5074195;28;20040;-77
2021/05/01 05:05:38;;;;;;;44.95;31.20;;;4.70;99.90;;;;;;5055779;28;20342;-78
2021/05/01 05:08:05;;;;;;;48.35;33.15;;;5.30;99.90;;;;;;5075075;28;20040;-78
2021/05/01 05:10:31;;;;;;;42.40;30.88;;;6.30;99.90;;;;;;5060551;28;20036;-77
2021/05/01 05:12:57;;;;;;;38.88;28.88;;;6.70;99.90;;;;;;5067924;28;20037;-78
2021/05/01 05:15:24;;;;;;;34.65;27.75;;;7.20;99.90;;;;;;5055653;28;20029;-78
2021/05/01 05:17:50;;;;;;;35.65;28.05;;;7.60;99.90;;;;;;5055435;28;20045;-77
2021/05/01 05:20:16;;;;;;;35.05;28.17;;;8.20;98.50;;;;;;5055775;28;20123;-78
2021/05/01 05:22:44;;;;;;;30.05;25.35;;;8.80;94.80;;;;;;5055203;28;20037;-79
2021/05/01 05:25:11;;;;;;;32.15;26.98;;;10.00;88.90;;;;;;5057504;28;20044;-77
2021/05/01 05:27:37;;;;;;;31.13;25.27;;;10.70;84.20;;;;;;5071006;28;20690;-77
2021/05/01 05:30:04;;;;;;;32.83;27.90;;;11.40;79.00;;;;;;5055042;28;20024;-79
2021/05/01 05:32:31;;;;;;;31.20;26.42;;;11.00;80.20;;;;;;5055700;28;20044;-78
2021/05/01 05:34:57;;;;;;;32.72;28.02;;;11.40;79.10;;;;;;5060339;28;20032;-78
2021/05/01 05:37:23;;;;;;;30.92;27.60;;;12.50;75.70;;;;;;5064582;28;20044;-78
2021/05/01 05:39:50;;;;;;;31.63;26.83;;;13.30;72.10;;;;;;5054446;28;20454;-78
2021/05/01 05:42:18;;;;;;;33.25;28.75;;;14.30;68.00;;;;;;5055480;28;20025;-78
2021/05/01 05:44:46;;;;;;;30.92;27.60;;;15.00;65.40;;;;;;5055564;28;20039;-79
2021/05/01 05:47:12;;;;;;;32.00;28.63;;;15.30;63.80;;;;;;5054255;28;20059;-76
2021/05/01 05:49:39;;;;;;;31.80;28.23;;;15.30;63.10;;;;;;5054855;28;20029;-78
2021/05/01 05:52:05;;;;;;;31.88;28.63;;;14.60;63.90;;;;;;5056041;28;20244;-77
2021/05/01 05:54:31;;;;;;;33.80;30.30;;;14.30;64.40;;;;;;5054414;28;20047;-77
2021/05/01 05:56:58;;;;;;;34.65;30.83;;;13.60;66.60;;;;;;5067054;28;20370;-77
2021/05/01 05:59:24;;;;;;;33.65;30.05;;;14.20;66.60;;;;;;5054926;28;20017;-78
2021/05/01 06:01:55;;;;;;;32.20;28.80;;;14.30;66.20;;;;;;5054798;28;20397;-78
2021/05/01 06:04:29;;;;;;;32.53;29.00;;;13.70;66.60;;;;;;5054929;28;20040;-77
2021/05/01 06:07:36;;;;;;;31.23;28.00;;;12.20;71.20;;;;;;5054188;28;20047;-77
2021/05/01 06:10:07;;;;;;;32.05;28.65;;;12.00;73.60;;;;;;5051106;28;20041;-77
2021/05/01 06:12:34;;;;;;;30.80;26.83;;;12.70;71.90;;;;;;5055201;28;20486;-76
2021/05/01 06:15:04;;;;;;;30.13;26.92;;;13.70;68.30;;;;;;5053999;28;20467;-76
2021/05/01 06:17:30;;;;;;;30.42;27.27;;;13.00;68.30;;;;;;5054580;28;20025;-77
2021/05/01 06:19:58;;;;;;;30.80;27.60;;;12.80;71.20;;;;;;5054249;28;20028;-78
2021/05/01 06:22:25;;;;;;;29.90;26.55;;;12.30;70.10;;;;;;5053986;28;20037;-77
2021/05/01 06:24:55;;;;;;;27.80;24.80;;;11.70;73.40;;;;;;5053726;28;20481;-77
2021/05/01 06:27:22;;;;;;;28.35;25.33;;;12.50;71.60;;;;;;5054060;28;20029;-78
2021/05/01 06:29:49;;;;;;;26.88;23.65;;;13.20;68.30;;;;;;5054040;28;20036;-77
2021/05/01 06:32:17;;;;;;;27.73;24.67;;;13.80;65.90;;;;;;5054030;28;20052;-77
2021/05/01 06:34:46;;;;;;;28.02;25.13;;;14.20;65.60;;;;;;5054198;28;20029;-78
2021/05/01 06:37:16;;;;;;;26.23;22.35;;;14.30;65.10;;;;;;5053688;28;20033;-77
2021/05/01 06:39:47;;;;;;;24.08;21.58;;;13.60;65.00;;;;;;5052521;28;20389;-78
2021/05/01 06:42:23;;;;;;;24.98;22.45;;;13.70;65.80;;;;;;5068312;28;20024;-78
2021/05/01 06:44:55;;;;;;;24.52;21.98;;;14.70;61.90;;;;;;5053494;28;20043;-77
2021/05/01 06:47:30;;;;;;;25.95;23.33;;;14.30;62.50;;;;;;5064483;28;20033;-78
2021/05/01 06:50:10;;;;;;;26.83;24.02;;;14.70;62.60;;;;;;5062706;28;20490;-78
2021/05/01 06:52:43;;;;;;;24.52;21.27;;;14.50;64.00;;;;;;5062826;28;20025;-77
2021/05/01 06:55:12;;;;;;;24.00;21.63;;;14.40;61.80;;;;;;5061175;28;20036;-77
2021/05/01 06:57:43;;;;;;;23.70;21.17;;;13.10;65.60;;;;;;5053177;28;20469;-77
2021/05/01 07:00:10;;;;;;;24.13;21.63;;;13.90;64.60;;;;;;5056946;28;20441;-77
2021/05/01 07:02:40;;;;;;;23.60;21.15;;;13.90;63.90;;;;;;5071557;28;20036;-77
2021/05/01 07:05:13;;;;;;;23.98;21.40;;;12.60;65.80;;;;;;5053551;28;20370;-79
2021/05/01 07:07:39;;;;;;;26.38;22.30;;;11.20;71.00;;;;;;5068072;28;20040;-79
2021/05/01 07:10:07;;;;;;;25.90;22.80;;;10.80;73.50;;;;;;5069048;28;20039;-80
2021/05/01 07:12:34;;;;;;;26.80;23.98;;;10.80;74.00;;;;;;5053702;28;20047;-80
2021/05/01 07:15:12;;;;;;;32.08;25.77;;;10.90;75.80;;;;;;5053219;28;20024;-80
2021/05/01 07:17:39;;;;;;;31.45;25.20;;;11.10;76.00;;;;;;5053647;28;20047;-80
2021/05/01 07:20:09;;;;;;;26.88;23.20;;;11.50;74.30;;;;;;5060763;28;20025;-80
2021/05/01 07:22:35;;;;;;;31.33;24.33;;;11.40;73.20;;;;;;5067405;28;20040;-80
2021/05/01 07:25:04;;;;;;;28.95;24.13;;;11.60;74.10;;;;;;5069306;28;20020;-79
2021/05/01 07:27:51;;;;;;;26.90;23.42;;;11.80;72.90;;;;;;5056485;28;20044;-78
2021/05/01 07:30:19;;;;;;;30.23;25.83;;;11.20;73.90;;;;;;5060538;28;20437;-79
2021/05/01 07:32:49;;;;;;;26.92;23.33;;;11.10;76.20;;;;;;5071059;28;20041;-80
2021/05/01 07:35:17;;;;;;;27.48;24.38;;;11.20;75.70;;;;;;5053177;28;20029;-79
2021/05/01 07:37:49;;;;;;;29.38;25.20;;;11.00;75.00;;;;;;5052948;28;20033;-79
2021/05/01 07:40:28;;;;;;;32.03;22.83;;;10.70;75.10;;;;;;5053647;28;20033;-78
2021/05/01 07:42:56;;;;;;;33.58;25.90;;;10.70;77.40;;;;;;5052072;28;20029;-79
2021/05/01 07:45:24;;;;;;;29.15;24.17;;;10.90;76.20;;;;;;5057754;28;20037;-79
2021/05/01 07:47:53;;;;;;;32.25;27.88;;;11.20;75.10;;;;;;5052137;28;20033;-79
2021/05/01 07:50:20;;;;;;;28.55;22.30;;;11.40;74.20;;;;;;5067151;28;20446;-79
2021/05/01 07:52:47;;;;;;;23.55;21.05;;;12.50;71.10;;;;;;5069590;28;20496;-78
2021/05/01 07:55:13;;;;;;;25.55;21.45;;;13.10;69.00;;;;;;5070220;28;20020;-79
2021/05/01 07:57:40;;;;;;;26.40;23.58;;;13.30;67.90;;;;;;5070128;28;20051;-79
2021/05/01 08:00:07;;;;;;;26.40;23.38;;;12.60;68.50;;;;;;5052854;28;20060;-78
2021/05/01 08:02:41;;;;;;;29.80;23.50;;;11.90;71.90;;;;;;5074249;28;20033;-79
2021/05/01 08:05:11;;;;;;;31.65;28.27;;;12.30;70.80;;;;;;5065279;28;20024;-79
2021/05/01 08:07:38;;;;;;;35.17;28.58;;;12.70;70.30;;;;;;5069979;28;20365;-79
2021/05/01 08:10:06;;;;;;;31.05;27.17;;;12.70;69.60;;;;;;5068890;28;20031;-79
2021/05/01 08:12:32;;;;;;;33.33;27.05;;;12.60;69.10;;;;;;5063687;28;20025;-80
2021/05/01 08:14:58;;;;;;;28.25;25.05;;;12.50;70.10;;;;;;5069538;28;20043;-80
2021/05/01 08:17:25;;;;;;;33.60;29.98;;;11.60;70.40;;;;;;5062237;28;20370;-80
2021/05/01 08:19:55;;;;;;;31.17;25.80;;;11.50;71.50;;;;;;5050924;28;20047;-80
2021/05/01 08:22:22;;;;;;;29.92;25.02;;;11.90;71.00;;;;;;5052278;28;20494;-80
2021/05/01 08:24:48;;;;;;;35.78;27.73;;;12.50;70.20;;;;;;5051016;28;20466;-80
2021/05/01 08:27:15;;;;;;;26.13;23.30;;;12.60;70.00;;;;;;5061604;28;20338;-80
2021/05/01 08:29:41;;;;;;;27.27;24.25;;;12.70;68.70;;;;;;5062353;28;20478;-79
2021/05/01 08:32:08;;;;;;;26.45;23.13;;;12.50;69.20;;;;;;5060785;28;20048;-80
2021/05/01 08:34:35;;;;;;;26.45;23.27;;;12.20;68.60;;;;;;5070529;28;20449;-80
2021/05/01 08:37:02;;;;;;;28.88;23.67;;;11.40;70.50;;;;;;5069360;28;20040;-80
2021/05/01 08:39:28;;;;;;;27.10;22.95;;;11.70;71.20;;;;;;5051685;28;20032;-78
2021/05/01 08:41:54;;;;;;;28.90;23.95;;;12.30;71.10;;;;;;5051226;28;20366;-79
2021/05/01 08:44:20;;;;;;;26.98;24.17;;;12.70;68.30;;;;;;5051225;28;20029;-79
2021/05/01 08:46:47;;;;;;;29.42;24.45;;;12.20;69.90;;;;;;5058767;28;20028;-79
2021/05/01 08:49:14;;;;;;;30.98;25.38;;;12.50;69.10;;;;;;5051424;28;20366;-79
2021/05/01 08:51:43;;;;;;;28.00;23.70;;;12.40;69.10;;;;;;5066812;28;20044;-80
2021/05/01 08:54:14;;;;;;;30.77;25.27;;;12.40;69.60;;;;;;5051152;28;20028;-79
2021/05/01 08:56:43;;;;;;;;;;;11.90;69.20;;;;;;5052512;28;20032;-80
2021/05/01 08:59:10;;;;;;;26.13;23.23;;;11.60;71.10;;;;;;5051793;28;20234;-79
2021/05/01 09:01:37;;;;;;;29.20;25.55;;;11.40;73.00;;;;;;5063443;28;20029;-79
2021/05/01 09:04:10;;;;;;;30.98;24.90;;;11.90;69.40;;;;;;5068406;28;20470;-80
2021/05/01 09:06:37;;;;;;;30.48;25.20;;;11.70;69.80;;;;;;5063797;28;20036;-80
2021/05/01 09:09:06;;;;;;;30.08;26.20;;;11.80;70.90;;;;;;5051736;28;20040;-81
2021/05/01 09:11:40;;;;;;;28.17;24.38;;;11.50;71.30;;;;;;5051411;28;20044;-80
2021/05/01 09:14:17;;;;;;;29.45;26.25;;;11.30;71.40;;;;;;5061798;28;20480;-81
2021/05/01 09:16:44;;;;;;;28.50;25.45;;;11.70;71.40;;;;;;5071923;28;20472;-81
2021/05/01 09:19:10;;;;;;;28.83;24.40;;;11.90;69.40;;;;;;5053183;28;20485;-80
2021/05/01 09:21:37;;;;;;;30.83;23.15;;;11.80;69.90;;;;;;5068504;28;20037;-80
2021/05/01 09:24:03;;;;;;;33.63;24.98;;;12.00;70.20;;;;;;5065575;28;20044;-80
2021/05/01 09:26:37;;;;;;;28.38;24.77;;;12.30;69.50;;;;;;5059775;28;20020;-80
2021/05/01 09:29:05;;;;;;;30.05;25.05;;;12.60;66.40;;;;;;5062777;28;20470;-79
2021/05/01 09:31:42;;;;;;;29.92;23.23;;;12.40;68.90;;;;;;5054897;28;20032;-80
2021/05/01 09:34:09;;;;;;;26.70;22.42;;;12.20;69.10;;;;;;5055100;28;20462;-81
2021/05/01 09:36:36;;;;;;;27.73;24.35;;;12.20;67.20;;;;;;5055013;28;20375;-81
2021/05/01 09:39:05;;;;;;;27.15;24.20;;;12.60;66.40;;;;;;5054865;28;20033;-81
2021/05/01 09:41:35;;;;;;;32.28;25.58;;;12.90;65.30;;;;;;5071892;28;20115;-82
2021/05/01 09:44:18;;;;;;;30.42;24.83;;;12.80;67.20;;;;;;5069717;28;20028;-81
2021/05/01 09:46:50;;;;;;;32.83;26.55;;;12.70;67.30;;;;;;5070476;28;20366;-80
2021/05/01 09:49:31;;;;;;;24.17;21.58;;;12.40;68.50;;;;;;5054888;28;20041;-79
2021/05/01 09:52:03;;;;;;;27.30;21.98;;;12.30;66.60;;;;;;5074387;28;20024;-80
2021/05/01 09:54:31;;;;;;;25.55;22.65;;;12.40;66.00;;;;;;5069714;28;20036;-79
2021/05/01 09:57:06;;;;;;;24.38;21.10;;;12.20;66.70;;;;;;5055189;28;20036;-79
2021/05/01 09:59:41;;;;;;;23.02;19.05;;;11.90;67.10;;;;;;5064742;28;20040;-80
2021/05/01 10:02:10;;;;;;;23.95;18.65;;;11.80;65.50;;;;;;5064089;28;20033;-80
2021/05/01 10:04:41;;;;;;;23.23;19.65;;;11.90;65.50;;;;;;5060116;28;20044;-80
2021/05/01 10:07:12;;;;;;;22.02;19.00;;;11.60;65.80;;;;;;5067359;28;20025;-80
2021/05/01 10:09:40;;;;;;;20.48;17.65;;;11.60;65.70;;;;;;5063295;28;20056;-79
2021/05/01 10:12:08;;;;;;;21.48;16.33;;;11.70;65.10;;;;;;5078926;28;20032;-78
2021/05/01 10:14:45;;;;;;;20.48;16.77;;;11.80;64.20;;;;;;5064755;28;20370;-80
2021/05/01 10:17:21;;;;;;;21.15;18.20;;;11.90;64.40;;;;;;5054675;28;20029;-78
2021/05/01 10:19:54;;;;;;;22.30;18.80;;;12.30;64.70;;;;;;5054790;28;20041;-79
2021/05/01 10:22:31;;;;;;;24.13;18.70;;;12.30;64.70;;;;;;5058134;28;20471;-78
2021/05/01 10:25:02;;;;;;;19.65;17.50;;;12.30;65.40;;;;;;5065210;28;20033;-79
2021/05/01 10:27:53;;;;;;;21.92;17.90;;;12.30;64.60;;;;;;5054545;28;20029;-79
2021/05/01 10:33:31;;;;;;;20.08;17.83;;;12.30;64.50;;;;;;5011719;28;20065;-79
2021/05/01 10:36:01;;;;;;;19.65;16.25;;;12.40;63.90;;;;;;5047259;28;20037;-80
2021/05/01 10:38:29;;;;;;;23.88;17.55;;;12.60;63.80;;;;;;5054094;28;20040;-79
2021/05/01 10:41:00;;;;;;;18.15;15.38;;;12.50;64.10;;;;;;5052536;28;20389;-79
2021/05/01 10:43:31;;;;;;;20.45;17.52;;;12.80;63.30;;;;;;5054007;28;20033;-80
2021/05/01 10:46:06;;;;;;;19.77;17.52;;;13.00;63.20;;;;;;5071710;28;20473;-79
2021/05/01 10:48:48;;;;;;;23.58;16.75;;;13.00;63.00;;;;;;5061141;28;20032;-79
2021/05/01 10:51:19;;;;;;;18.55;15.93;;;13.10;61.50;;;;;;5060859;28;20024;-80
2021/05/01 10:53:49;;;;;;;21.05;18.08;;;12.90;62.10;;;;;;5067022;28;20056;-78
2021/05/01 10:56:36;;;;;;;19.48;16.23;;;12.40;63.90;;;;;;5063849;28;20029;-79
2021/05/01 10:59:11;;;;;;;20.20;15.80;;;12.50;63.60;;;;;;5060417;28;20035;-79
2021/05/01 11:01:46;;;;;;;19.23;16.38;;;12.60;63.40;;;;;;5063728;28;20048;-79
2021/05/01 11:04:33;;;;;;;20.98;17.70;;;12.60;63.50;;;;;;5068721;28;20029;-78
2021/05/01 11:07:08;;;;;;;17.35;15.27;;;12.50;63.60;;;;;;5059146;28;20041;-79
2021/05/01 11:09:51;;;;;;;18.83;15.85;;;12.60;62.60;;;;;;5064656;28;20040;-79
2021/05/01 11:12:22;;;;;;;17.88;13.82;;;12.80;64.20;;;;;;5067441;28;20373;-79
2021/05/01 11:14:59;;;;;;;15.55;13.07;;;13.40;61.50;;;;;;5052758;28;20041;-79
2021/05/01 11:17:45;;;;;;;14.55;12.88;;;13.30;60.10;;;;;;5053886;28;20036;-79
2021/05/01 11:20:17;;;;;;;13.45;11.60;;;13.30;59.70;;;;;;5054159;28;20037;-78
2021/05/01 11:22:50;;;;;;;15.93;11.80;;;13.50;60.40;;;;;;5061398;28;20052;-79
2021/05/01 11:25:19;;;;;;;;;;;13.50;59.80;;;;;;5069024;28;20044;-79
2021/05/01 11:27:48;;;;;;;15.07;10.93;;;13.30;59.10;;;;;;5052964;28;19904;-79
2021/05/01 11:30:17;;;;;;;16.13;10.65;;;13.30;59.00;;;;;;5060112;28;20044;-79
2021/05/01 11:32:45;;;;;;;12.10;10.07;;;13.40;58.20;;;;;;5061983;28;20052;-78
2021/05/01 11:35:15;;;;;;;12.20;10.63;;;13.40;58.00;;;;;;5070605;28;20047;-78
2021/05/01 11:37:49;;;;;;;10.40;8.48;;;13.60;58.20;;;;;;5055888;28;20021;-80
2021/05/01 11:40:17;;;;;;;13.95;10.65;;;13.40;57.20;;;;;;5060149;28;20100;-78
2021/05/01 11:42:47;;;;;;;11.38;9.20;;;13.20;57.60;;;;;;5045756;28;20501;-79
2021/05/01 11:45:17;;;;;;;11.63;9.65;;;13.40;58.30;;;;;;5050655;28;20033;-80
2021/05/01 11:47:49;;;;;;;11.82;10.38;;;13.60;57.50;;;;;;5052925;28;20025;-80
2021/05/01 11:50:16;;;;;;;13.70;11.48;;;13.60;57.30;;;;;;5052946;28;20100;-80
2021/05/01 11:53:01;;;;;;;17.08;12.02;;;13.50;58.10;;;;;;5034341;28;20044;-79
2021/05/01 11:55:33;;;;;;;14.73;13.20;;;13.70;57.80;;;;;;5053323;28;20037;-79
2021/05/01 11:58:01;;;;;;;14.13;12.13;;;13.50;58.70;;;;;;5065942;28;20044;-79
2021/05/01 12:00:38;;;;;;;14.20;12.05;;;13.40;58.00;;;;;;5052323;28;20040;-80
2021/05/01 12:03:23;;;;;;;16.20;12.43;;;13.30;58.30;;;;;;5051648;28;20037;-79
2021/05/01 12:05:54;;;;;;;14.95;11.80;;;13.60;57.90;;;;;;5052659;28;20029;-79
2021/05/01 12:08:27;;;;;;;15.20;11.65;;;13.40;58.00;;;;;;5052239;28;20041;-79
2021/05/01 12:10:57;;;;;;;14.95;10.77;;;13.90;58.50;;;;;;5065965;28;20025;-80
2021/05/01 12:13:36;;;;;;;13.57;12.10;;;14.10;56.60;;;;;;5052817;28;20029;-80
2021/05/01 12:16:04;;;;;;;13.90;11.73;;;13.90;56.30;;;;;;5061935;28;20036;-79
2021/05/01 12:18:43;;;;;;;15.82;12.43;;;14.00;56.80;;;;;;5067030;28;20041;-79
2021/05/01 12:21:20;;;;;;;12.65;11.25;;;14.20;56.60;;;;;;5066021;28;20044;-79
2021/05/01 12:23:48;;;;;;;14.43;11.85;;;14.40;55.70;;;;;;5056181;28;20024;-80
2021/05/01 12:26:35;;;;;;;13.50;11.95;;;14.10;56.50;;;;;;5052090;28;20029;-80
2021/05/01 12:29:24;;;;;;;16.25;11.95;;;13.90;56.00;;;;;;5050750;28;20044;-79
2021/05/01 12:31:56;;;;;;;11.63;9.45;;;14.10;55.20;;;;;;5050972;28;20057;-80
2021/05/01 12:34:49;;;;;;;11.07;9.70;;;14.30;55.00;;;;;;5052518;28;20029;-80
2021/05/01 12:37:18;;;;;;;11.75;9.23;;;13.90;54.70;;;;;;5050996;28;20033;-80
2021/05/01 12:39:45;;;;;;;12.80;10.48;;;13.90;54.80;;;;;;5062012;28;20086;-80
2021/05/01 12:42:21;;;;;;;11.35;9.77;;;14.20;56.10;;;;;;5055848;28;20029;-80
2021/05/01 12:44:50;;;;;;;13.13;9.63;;;14.70;55.10;;;;;;5057264;28;20045;-81
2021/05/01 12:47:39;;;;;;;11.07;9.70;;;14.70;53.90;;;;;;5077839;28;20468;-80
2021/05/01 12:50:11;;;;;;;14.82;11.13;;;14.40;54.70;;;;;;5051507;28;20390;-79